sensor_id;sensor_type;location;lat;lon;timestamp;P1;durP1;ratioP1;P2;durP2;ratioP2
9834;SDS011;69850;50.942;13.748;2024-02-28T00:02:07;72.40;;;28.50;;
9834;SDS011;69850;50.942;13.748;2024-02-28T00:05:28;74.00;;;30.38;;
9834;SDS011;69850;50.942;13.748;2024-02-28T00:08:48;77.53;;;30.38;;
9834;SDS011;69850;50.942;13.748;2024-02-28T00:12:11;72.25;;;29.10;;
9834;SDS011;69850;50.942;13.748;2024-02-28T00:15:32;66.18;;;28.23;;
9834;SDS011;69850;50.942;13.748;2024-02-28T00:18:52;74.85;;;28.40;;
9834;SDS011;69850;50.942;13.748;2024-02-28T00:22:13;62.10;;;26.67;;
9834;SDS011;69850;50.942;13.748;2024-02-28T00:25:34;52.30;;;21.73;;
9834;SDS011;69850;50.942;13.748;2024-02-28T00:28:55;61.97;;;27.17;;
9834;SDS011;69850;50.942;13.748;2024-02-28T00:32:16;67.53;;;26.52;;
9834;SDS011;69850;50.942;13.748;2024-02-28T00:35:37;67.65;;;26.85;;
9834;SDS011;69850;50.942;13.748;2024-02-28T00:38:59;66.32;;;27.15;;
9834;SDS011;69850;50.942;13.748;2024-02-28T00:42:21;64.13;;;27.88;;
9834;SDS011;69850;50.942;13.748;2024-02-28T00:45:42;72.28;;;28.48;;
9834;SDS011;69850;50.942;13.748;2024-02-28T00:49:03;67.97;;;26.85;;
9834;SDS011;69850;50.942;13.748;2024-02-28T00:52:24;69.65;;;27.77;;
9834;SDS011;69850;50.942;13.748;2024-02-28T00:55:45;63.72;;;27.73;;
9834;SDS011;69850;50.942;13.748;2024-02-28T00:59:06;61.42;;;26.75;;
9834;SDS011;69850;50.942;13.748;2024-02-28T01:02:31;65.63;;;27.55;;
9834;SDS011;69850;50.942;13.748;2024-02-28T01:05:53;66.30;;;26.90;;
9834;SDS011;69850;50.942;13.748;2024-02-28T01:09:14;58.97;;;25.20;;
9834;SDS011;69850;50.942;13.748;2024-02-28T01:12:35;55.75;;;25.02;;
9834;SDS011;69850;50.942;13.748;2024-02-28T01:15:56;49.72;;;23.63;;
9834;SDS011;69850;50.942;13.748;2024-02-28T01:19:19;45.50;;;21.95;;
9834;SDS011;69850;50.942;13.748;2024-02-28T01:22:40;40.95;;;21.67;;
9834;SDS011;69850;50.942;13.748;2024-02-28T01:26:00;44.40;;;21.08;;
9834;SDS011;69850;50.942;13.748;2024-02-28T01:29:24;46.67;;;22.08;;
9834;SDS011;69850;50.942;13.748;2024-02-28T01:32:44;44.75;;;21.75;;
9834;SDS011;69850;50.942;13.748;2024-02-28T01:36:06;49.75;;;23.02;;
9834;SDS011;69850;50.942;13.748;2024-02-28T01:39:27;43.50;;;21.48;;
9834;SDS011;69850;50.942;13.748;2024-02-28T01:42:48;43.70;;;21.67;;
9834;SDS011;69850;50.942;13.748;2024-02-28T01:49:59;50.17;;;23.20;;
9834;SDS011;69850;50.942;13.748;2024-02-28T01:53:20;52.80;;;23.90;;
9834;SDS011;69850;50.942;13.748;2024-02-28T01:56:41;51.35;;;22.70;;
9834;SDS011;69850;50.942;13.748;2024-02-28T02:00:02;46.50;;;22.67;;
9834;SDS011;69850;50.942;13.748;2024-02-28T02:03:24;51.33;;;23.92;;
9834;SDS011;69850;50.942;13.748;2024-02-28T02:06:45;49.55;;;22.90;;
9834;SDS011;69850;50.942;13.748;2024-02-28T02:10:07;52.92;;;24.27;;
9834;SDS011;69850;50.942;13.748;2024-02-28T02:13:30;50.83;;;23.38;;
9834;SDS011;69850;50.942;13.748;2024-02-28T02:16:51;56.13;;;23.75;;
9834;SDS011;69850;50.942;13.748;2024-02-28T02:20:13;62.00;;;24.58;;
9834;SDS011;69850;50.942;13.748;2024-02-28T02:23:34;49.97;;;22.42;;
9834;SDS011;69850;50.942;13.748;2024-02-28T02:26:58;56.55;;;23.55;;
9834;SDS011;69850;50.942;13.748;2024-02-28T02:30:19;52.33;;;22.30;;
9834;SDS011;69850;50.942;13.748;2024-02-28T02:33:40;58.28;;;21.70;;
9834;SDS011;69850;50.942;13.748;2024-02-28T02:37:01;50.40;;;21.45;;
9834;SDS011;69850;50.942;13.748;2024-02-28T02:40:21;55.80;;;22.75;;
9834;SDS011;69850;50.942;13.748;2024-02-28T02:43:42;56.92;;;23.05;;
9834;SDS011;69850;50.942;13.748;2024-02-28T02:47:03;54.25;;;22.42;;
9834;SDS011;69850;50.942;13.748;2024-02-28T02:50:23;65.05;;;23.52;;
9834;SDS011;69850;50.942;13.748;2024-02-28T02:53:44;60.88;;;24.75;;
9834;SDS011;69850;50.942;13.748;2024-02-28T02:57:05;60.03;;;23.90;;
9834;SDS011;69850;50.942;13.748;2024-02-28T03:00:26;61.25;;;23.85;;
9834;SDS011;69850;50.942;13.748;2024-02-28T03:03:46;53.20;;;21.90;;
9834;SDS011;69850;50.942;13.748;2024-02-28T03:07:07;57.40;;;23.67;;
9834;SDS011;69850;50.942;13.748;2024-02-28T03:10:28;54.28;;;21.15;;
9834;SDS011;69850;50.942;13.748;2024-02-28T03:13:49;52.30;;;20.83;;
9834;SDS011;69850;50.942;13.748;2024-02-28T03:17:10;60.22;;;24.50;;
9834;SDS011;69850;50.942;13.748;2024-02-28T03:20:30;64.55;;;25.25;;
9834;SDS011;69850;50.942;13.748;2024-02-28T03:23:51;63.28;;;23.17;;
9834;SDS011;69850;50.942;13.748;2024-02-28T03:27:12;67.18;;;24.45;;
9834;SDS011;69850;50.942;13.748;2024-02-28T03:30:33;59.35;;;22.95;;
9834;SDS011;69850;50.942;13.748;2024-02-28T03:33:53;61.03;;;25.08;;
9834;SDS011;69850;50.942;13.748;2024-02-28T03:37:14;72.82;;;24.83;;
9834;SDS011;69850;50.942;13.748;2024-02-28T03:40:35;73.05;;;24.08;;
9834;SDS011;69850;50.942;13.748;2024-02-28T03:43:56;54.58;;;21.02;;
9834;SDS011;69850;50.942;13.748;2024-02-28T03:47:16;71.63;;;23.33;;
9834;SDS011;69850;50.942;13.748;2024-02-28T03:50:37;64.15;;;23.75;;
9834;SDS011;69850;50.942;13.748;2024-02-28T03:53:58;66.75;;;24.25;;
9834;SDS011;69850;50.942;13.748;2024-02-28T03:57:19;60.70;;;23.10;;
9834;SDS011;69850;50.942;13.748;2024-02-28T04:00:39;70.10;;;24.35;;
9834;SDS011;69850;50.942;13.748;2024-02-28T04:04:00;77.38;;;24.55;;
9834;SDS011;69850;50.942;13.748;2024-02-28T04:07:21;49.22;;;19.67;;
9834;SDS011;69850;50.942;13.748;2024-02-28T04:10:41;44.65;;;20.88;;
9834;SDS011;69850;50.942;13.748;2024-02-28T04:14:02;47.88;;;20.77;;
9834;SDS011;69850;50.942;13.748;2024-02-28T04:17:23;45.88;;;19.70;;
9834;SDS011;69850;50.942;13.748;2024-02-28T04:20:44;52.10;;;20.83;;
9834;SDS011;69850;50.942;13.748;2024-02-28T04:24:05;43.25;;;17.25;;
9834;SDS011;69850;50.942;13.748;2024-02-28T04:27:26;51.13;;;20.48;;
9834;SDS011;69850;50.942;13.748;2024-02-28T04:30:47;53.65;;;22.77;;
9834;SDS011;69850;50.942;13.748;2024-02-28T04:34:08;51.22;;;20.83;;
9834;SDS011;69850;50.942;13.748;2024-02-28T04:37:28;48.05;;;19.50;;
9834;SDS011;69850;50.942;13.748;2024-02-28T04:40:51;48.55;;;20.27;;
9834;SDS011;69850;50.942;13.748;2024-02-28T04:44:12;48.60;;;19.48;;
9834;SDS011;69850;50.942;13.748;2024-02-28T04:47:33;39.60;;;17.98;;
9834;SDS011;69850;50.942;13.748;2024-02-28T04:50:53;37.30;;;13.57;;
9834;SDS011;69850;50.942;13.748;2024-02-28T04:54:14;42.20;;;17.70;;
9834;SDS011;69850;50.942;13.748;2024-02-28T04:57:35;44.72;;;19.48;;
9834;SDS011;69850;50.942;13.748;2024-02-28T05:00:56;50.70;;;19.58;;
9834;SDS011;69850;50.942;13.748;2024-02-28T05:04:16;40.15;;;18.90;;
9834;SDS011;69850;50.942;13.748;2024-02-28T05:07:37;37.70;;;15.98;;
9834;SDS011;69850;50.942;13.748;2024-02-28T05:10:58;40.25;;;17.83;;
9834;SDS011;69850;50.942;13.748;2024-02-28T05:14:18;49.42;;;19.95;;
9834;SDS011;69850;50.942;13.748;2024-02-28T05:17:39;45.55;;;19.23;;
9834;SDS011;69850;50.942;13.748;2024-02-28T05:21:00;44.63;;;18.67;;
9834;SDS011;69850;50.942;13.748;2024-02-28T05:24:21;45.60;;;18.50;;
9834;SDS011;69850;50.942;13.748;2024-02-28T05:27:41;39.92;;;17.02;;
9834;SDS011;69850;50.942;13.748;2024-02-28T05:31:03;44.20;;;18.73;;
9834;SDS011;69850;50.942;13.748;2024-02-28T05:34:41;43.40;;;17.20;;
9834;SDS011;69850;50.942;13.748;2024-02-28T05:38:01;42.42;;;18.45;;
9834;SDS011;69850;50.942;13.748;2024-02-28T05:41:23;54.40;;;21.75;;
9834;SDS011;69850;50.942;13.748;2024-02-28T05:44:43;55.72;;;19.40;;
9834;SDS011;69850;50.942;13.748;2024-02-28T05:48:04;44.85;;;18.00;;
9834;SDS011;69850;50.942;13.748;2024-02-28T05:51:27;40.50;;;17.52;;
9834;SDS011;69850;50.942;13.748;2024-02-28T05:54:47;45.95;;;18.27;;
9834;SDS011;69850;50.942;13.748;2024-02-28T05:58:08;42.17;;;16.85;;
9834;SDS011;69850;50.942;13.748;2024-02-28T06:01:30;45.80;;;18.33;;
9834;SDS011;69850;50.942;13.748;2024-02-28T06:04:50;41.88;;;15.20;;
9834;SDS011;69850;50.942;13.748;2024-02-28T06:08:11;18.75;;;7.47;;
9834;SDS011;69850;50.942;13.748;2024-02-28T06:11:32;39.05;;;16.13;;
9834;SDS011;69850;50.942;13.748;2024-02-28T06:14:53;53.85;;;22.23;;
9834;SDS011;69850;50.942;13.748;2024-02-28T06:18:14;53.92;;;21.20;;
9834;SDS011;69850;50.942;13.748;2024-02-28T06:21:35;58.63;;;20.88;;
9834;SDS011;69850;50.942;13.748;2024-02-28T06:24:55;57.78;;;21.40;;
9834;SDS011;69850;50.942;13.748;2024-02-28T06:28:16;57.05;;;22.50;;
9834;SDS011;69850;50.942;13.748;2024-02-28T06:31:37;56.05;;;22.30;;
9834;SDS011;69850;50.942;13.748;2024-02-28T06:34:57;56.47;;;21.13;;
9834;SDS011;69850;50.942;13.748;2024-02-28T06:38:18;46.90;;;19.58;;
9834;SDS011;69850;50.942;13.748;2024-02-28T06:41:39;41.85;;;17.95;;
9834;SDS011;69850;50.942;13.748;2024-02-28T06:44:59;45.40;;;17.75;;
9834;SDS011;69850;50.942;13.748;2024-02-28T06:48:20;40.72;;;15.70;;
9834;SDS011;69850;50.942;13.748;2024-02-28T06:51:42;34.42;;;13.88;;
9834;SDS011;69850;50.942;13.748;2024-02-28T06:55:03;35.35;;;14.10;;
9834;SDS011;69850;50.942;13.748;2024-02-28T06:58:30;27.20;;;12.70;;
9834;SDS011;69850;50.942;13.748;2024-02-28T07:01:51;33.00;;;12.93;;
9834;SDS011;69850;50.942;13.748;2024-02-28T07:05:12;32.00;;;13.85;;
9834;SDS011;69850;50.942;13.748;2024-02-28T07:08:33;34.35;;;13.15;;
9834;SDS011;69850;50.942;13.748;2024-02-28T07:11:53;34.03;;;14.55;;
9834;SDS011;69850;50.942;13.748;2024-02-28T07:15:14;28.83;;;12.13;;
9834;SDS011;69850;50.942;13.748;2024-02-28T07:18:35;29.92;;;13.15;;
9834;SDS011;69850;50.942;13.748;2024-02-28T07:21:55;30.80;;;13.15;;
9834;SDS011;69850;50.942;13.748;2024-02-28T07:25:16;30.42;;;14.23;;
9834;SDS011;69850;50.942;13.748;2024-02-28T07:28:37;37.25;;;16.85;;
9834;SDS011;69850;50.942;13.748;2024-02-28T07:31:57;47.60;;;17.05;;
9834;SDS011;69850;50.942;13.748;2024-02-28T07:35:18;45.97;;;17.98;;
9834;SDS011;69850;50.942;13.748;2024-02-28T07:38:41;49.58;;;19.17;;
9834;SDS011;69850;50.942;13.748;2024-02-28T07:42:02;45.60;;;18.17;;
9834;SDS011;69850;50.942;13.748;2024-02-28T07:45:22;44.40;;;17.75;;
9834;SDS011;69850;50.942;13.748;2024-02-28T07:48:43;49.45;;;19.17;;
9834;SDS011;69850;50.942;13.748;2024-02-28T07:52:04;48.10;;;20.75;;
9834;SDS011;69850;50.942;13.748;2024-02-28T07:55:24;37.70;;;16.77;;
9834;SDS011;69850;50.942;13.748;2024-02-28T07:58:45;34.78;;;16.15;;
9834;SDS011;69850;50.942;13.748;2024-02-28T08:02:06;38.95;;;18.23;;
9834;SDS011;69850;50.942;13.748;2024-02-28T08:05:27;37.65;;;16.35;;
9834;SDS011;69850;50.942;13.748;2024-02-28T08:08:48;34.25;;;15.45;;
9834;SDS011;69850;50.942;13.748;2024-02-28T08:12:09;38.80;;;16.52;;
9834;SDS011;69850;50.942;13.748;2024-02-28T08:15:29;38.72;;;18.48;;
9834;SDS011;69850;50.942;13.748;2024-02-28T08:18:50;25.42;;;9.23;;
9834;SDS011;69850;50.942;13.748;2024-02-28T08:22:11;39.78;;;16.23;;
9834;SDS011;69850;50.942;13.748;2024-02-28T08:25:32;44.47;;;19.08;;
9834;SDS011;69850;50.942;13.748;2024-02-28T08:28:52;33.05;;;13.07;;
9834;SDS011;69850;50.942;13.748;2024-02-28T08:32:13;30.00;;;13.95;;
9834;SDS011;69850;50.942;13.748;2024-02-28T08:35:34;26.58;;;12.35;;
9834;SDS011;69850;50.942;13.748;2024-02-28T08:38:54;28.33;;;12.18;;
9834;SDS011;69850;50.942;13.748;2024-02-28T08:42:15;26.08;;;12.38;;
9834;SDS011;69850;50.942;13.748;2024-02-28T08:45:36;30.15;;;13.23;;
9834;SDS011;69850;50.942;13.748;2024-02-28T08:48:56;30.90;;;13.10;;
9834;SDS011;69850;50.942;13.748;2024-02-28T08:52:17;35.05;;;17.50;;
9834;SDS011;69850;50.942;13.748;2024-02-28T08:55:38;26.80;;;12.00;;
9834;SDS011;69850;50.942;13.748;2024-02-28T08:58:58;25.08;;;12.05;;
9834;SDS011;69850;50.942;13.748;2024-02-28T09:02:19;28.38;;;10.95;;
9834;SDS011;69850;50.942;13.748;2024-02-28T09:05:40;45.97;;;21.88;;
9834;SDS011;69850;50.942;13.748;2024-02-28T09:09:01;31.45;;;12.70;;
9834;SDS011;69850;50.942;13.748;2024-02-28T09:12:21;32.63;;;15.52;;
9834;SDS011;69850;50.942;13.748;2024-02-28T09:15:42;22.65;;;8.05;;
9834;SDS011;69850;50.942;13.748;2024-02-28T09:19:03;33.00;;;13.38;;
9834;SDS011;69850;50.942;13.748;2024-02-28T09:22:24;32.08;;;14.23;;
9834;SDS011;69850;50.942;13.748;2024-02-28T09:25:45;25.52;;;10.10;;
9834;SDS011;69850;50.942;13.748;2024-02-28T09:29:06;32.92;;;16.30;;
9834;SDS011;69850;50.942;13.748;2024-02-28T09:32:27;35.85;;;15.93;;
9834;SDS011;69850;50.942;13.748;2024-02-28T09:35:47;35.35;;;15.65;;
9834;SDS011;69850;50.942;13.748;2024-02-28T09:39:08;41.83;;;17.80;;
9834;SDS011;69850;50.942;13.748;2024-02-28T09:42:29;35.88;;;14.38;;
9834;SDS011;69850;50.942;13.748;2024-02-28T09:45:50;46.03;;;18.65;;
9834;SDS011;69850;50.942;13.748;2024-02-28T09:49:10;33.40;;;13.25;;
9834;SDS011;69850;50.942;13.748;2024-02-28T09:52:31;73.40;;;26.02;;
9834;SDS011;69850;50.942;13.748;2024-02-28T09:55:52;36.00;;;17.30;;
9834;SDS011;69850;50.942;13.748;2024-02-28T09:59:13;38.50;;;15.55;;
9834;SDS011;69850;50.942;13.748;2024-02-28T10:02:34;45.35;;;20.65;;
9834;SDS011;69850;50.942;13.748;2024-02-28T10:05:54;50.50;;;21.70;;
9834;SDS011;69850;50.942;13.748;2024-02-28T10:09:15;39.17;;;15.82;;
9834;SDS011;69850;50.942;13.748;2024-02-28T10:12:40;41.17;;;18.25;;
9834;SDS011;69850;50.942;13.748;2024-02-28T10:16:01;42.03;;;17.75;;
9834;SDS011;69850;50.942;13.748;2024-02-28T10:19:23;41.85;;;18.77;;
9834;SDS011;69850;50.942;13.748;2024-02-28T10:22:44;82.78;;;31.02;;
9834;SDS011;69850;50.942;13.748;2024-02-28T10:26:05;43.80;;;19.48;;
9834;SDS011;69850;50.942;13.748;2024-02-28T10:29:29;48.17;;;19.75;;
9834;SDS011;69850;50.942;13.748;2024-02-28T10:32:49;43.95;;;19.70;;
9834;SDS011;69850;50.942;13.748;2024-02-28T10:36:10;34.05;;;13.75;;
9834;SDS011;69850;50.942;13.748;2024-02-28T10:39:32;48.70;;;18.13;;
9834;SDS011;69850;50.942;13.748;2024-02-28T10:42:53;39.15;;;18.60;;
9834;SDS011;69850;50.942;13.748;2024-02-28T10:46:14;42.70;;;17.35;;
9834;SDS011;69850;50.942;13.748;2024-02-28T10:49:35;47.13;;;17.08;;
9834;SDS011;69850;50.942;13.748;2024-02-28T10:52:56;39.25;;;16.90;;
9834;SDS011;69850;50.942;13.748;2024-02-28T10:56:21;50.05;;;19.65;;
9834;SDS011;69850;50.942;13.748;2024-02-28T10:59:42;30.08;;;10.80;;
9834;SDS011;69850;50.942;13.748;2024-02-28T11:03:04;49.75;;;19.65;;
9834;SDS011;69850;50.942;13.748;2024-02-28T11:06:25;50.40;;;18.88;;
9834;SDS011;69850;50.942;13.748;2024-02-28T11:09:46;51.03;;;20.13;;
9834;SDS011;69850;50.942;13.748;2024-02-28T11:13:07;54.55;;;22.35;;
9834;SDS011;69850;50.942;13.748;2024-02-28T11:16:29;57.75;;;23.67;;
9834;SDS011;69850;50.942;13.748;2024-02-28T11:19:51;51.67;;;22.88;;
9834;SDS011;69850;50.942;13.748;2024-02-28T11:23:12;52.15;;;21.08;;
9834;SDS011;69850;50.942;13.748;2024-02-28T11:26:34;50.33;;;21.45;;
9834;SDS011;69850;50.942;13.748;2024-02-28T11:29:55;50.58;;;18.20;;
9834;SDS011;69850;50.942;13.748;2024-02-28T11:33:16;52.35;;;22.60;;
9834;SDS011;69850;50.942;13.748;2024-02-28T11:36:38;51.80;;;22.92;;
9834;SDS011;69850;50.942;13.748;2024-02-28T11:40:01;50.63;;;22.23;;
9834;SDS011;69850;50.942;13.748;2024-02-28T11:43:22;48.08;;;19.88;;
9834;SDS011;69850;50.942;13.748;2024-02-28T11:46:46;49.22;;;19.15;;
9834;SDS011;69850;50.942;13.748;2024-02-28T11:50:07;53.55;;;20.88;;
9834;SDS011;69850;50.942;13.748;2024-02-28T11:53:28;51.05;;;22.02;;
9834;SDS011;69850;50.942;13.748;2024-02-28T11:56:49;51.92;;;23.23;;
9834;SDS011;69850;50.942;13.748;2024-02-28T12:00:09;42.58;;;19.40;;
9834;SDS011;69850;50.942;13.748;2024-02-28T12:03:33;37.17;;;16.33;;
9834;SDS011;69850;50.942;13.748;2024-02-28T12:06:53;33.65;;;13.68;;
9834;SDS011;69850;50.942;13.748;2024-02-28T12:10:14;40.38;;;16.80;;
9834;SDS011;69850;50.942;13.748;2024-02-28T12:13:36;41.70;;;18.73;;
9834;SDS011;69850;50.942;13.748;2024-02-28T12:16:58;40.25;;;18.42;;
9834;SDS011;69850;50.942;13.748;2024-02-28T12:20:18;39.92;;;17.75;;
9834;SDS011;69850;50.942;13.748;2024-02-28T12:23:39;37.28;;;17.15;;
9834;SDS011;69850;50.942;13.748;2024-02-28T12:27:00;43.72;;;20.25;;
9834;SDS011;69850;50.942;13.748;2024-02-28T12:30:21;40.55;;;17.83;;
9834;SDS011;69850;50.942;13.748;2024-02-28T12:33:42;36.42;;;19.38;;
9834;SDS011;69850;50.942;13.748;2024-02-28T12:37:02;32.15;;;16.95;;
9834;SDS011;69850;50.942;13.748;2024-02-28T12:40:25;24.75;;;10.15;;
9834;SDS011;69850;50.942;13.748;2024-02-28T12:43:46;23.30;;;11.35;;
9834;SDS011;69850;50.942;13.748;2024-02-28T12:47:06;29.13;;;14.23;;
9834;SDS011;69850;50.942;13.748;2024-02-28T12:50:27;20.65;;;10.07;;
9834;SDS011;69850;50.942;13.748;2024-02-28T12:53:48;31.33;;;15.25;;
9834;SDS011;69850;50.942;13.748;2024-02-28T12:57:09;26.17;;;11.45;;
9834;SDS011;69850;50.942;13.748;2024-02-28T13:00:32;31.52;;;16.33;;
9834;SDS011;69850;50.942;13.748;2024-02-28T13:03:53;32.70;;;12.90;;
9834;SDS011;69850;50.942;13.748;2024-02-28T13:07:14;41.35;;;21.83;;
9834;SDS011;69850;50.942;13.748;2024-02-28T13:10:35;24.75;;;11.38;;
9834;SDS011;69850;50.942;13.748;2024-02-28T13:13:59;35.72;;;16.98;;
9834;SDS011;69850;50.942;13.748;2024-02-28T13:17:20;24.92;;;11.05;;
9834;SDS011;69850;50.942;13.748;2024-02-28T13:20:41;35.88;;;18.23;;
9834;SDS011;69850;50.942;13.748;2024-02-28T13:24:02;34.33;;;16.73;;
9834;SDS011;69850;50.942;13.748;2024-02-28T13:27:23;35.80;;;18.33;;
9834;SDS011;69850;50.942;13.748;2024-02-28T13:30:44;32.45;;;13.52;;
9834;SDS011;69850;50.942;13.748;2024-02-28T13:34:04;40.45;;;20.05;;
9834;SDS011;69850;50.942;13.748;2024-02-28T13:37:25;38.47;;;18.67;;
9834;SDS011;69850;50.942;13.748;2024-02-28T13:40:49;38.03;;;19.23;;
9834;SDS011;69850;50.942;13.748;2024-02-28T13:44:10;37.95;;;16.70;;
9834;SDS011;69850;50.942;13.748;2024-02-28T13:47:31;38.35;;;19.75;;
9834;SDS011;69850;50.942;13.748;2024-02-28T13:50:51;29.20;;;12.18;;
9834;SDS011;69850;50.942;13.748;2024-02-28T13:54:12;43.55;;;20.27;;
9834;SDS011;69850;50.942;13.748;2024-02-28T13:57:33;38.58;;;17.27;;
9834;SDS011;69850;50.942;13.748;2024-02-28T14:00:53;35.17;;;16.77;;
9834;SDS011;69850;50.942;13.748;2024-02-28T14:04:14;40.70;;;19.52;;
9834;SDS011;69850;50.942;13.748;2024-02-28T14:07:35;35.22;;;16.48;;
9834;SDS011;69850;50.942;13.748;2024-02-28T14:10:59;38.08;;;18.05;;
9834;SDS011;69850;50.942;13.748;2024-02-28T14:14:20;41.67;;;19.98;;
9834;SDS011;69850;50.942;13.748;2024-02-28T14:17:41;45.17;;;22.02;;
9834;SDS011;69850;50.942;13.748;2024-02-28T14:21:02;44.13;;;21.55;;
9834;SDS011;69850;50.942;13.748;2024-02-28T14:24:24;44.38;;;21.58;;
9834;SDS011;69850;50.942;13.748;2024-02-28T14:27:45;43.45;;;22.60;;
9834;SDS011;69850;50.942;13.748;2024-02-28T14:31:06;45.45;;;21.92;;
9834;SDS011;69850;50.942;13.748;2024-02-28T14:34:27;55.58;;;28.20;;
9834;SDS011;69850;50.942;13.748;2024-02-28T14:37:51;46.47;;;24.67;;
9834;SDS011;69850;50.942;13.748;2024-02-28T14:41:12;47.92;;;23.35;;
9834;SDS011;69850;50.942;13.748;2024-02-28T14:44:33;44.28;;;22.75;;
9834;SDS011;69850;50.942;13.748;2024-02-28T14:47:54;46.10;;;23.13;;
9834;SDS011;69850;50.942;13.748;2024-02-28T14:51:15;40.03;;;20.77;;
9834;SDS011;69850;50.942;13.748;2024-02-28T14:54:37;41.65;;;21.83;;
9834;SDS011;69850;50.942;13.748;2024-02-28T14:57:59;42.60;;;22.67;;
9834;SDS011;69850;50.942;13.748;2024-02-28T15:01:20;39.65;;;19.05;;
9834;SDS011;69850;50.942;13.748;2024-02-28T15:04:42;41.75;;;21.13;;
9834;SDS011;69850;50.942;13.748;2024-02-28T15:08:03;38.78;;;20.55;;
9834;SDS011;69850;50.942;13.748;2024-02-28T15:11:24;38.78;;;21.23;;
9834;SDS011;69850;50.942;13.748;2024-02-28T15:14:44;38.78;;;20.92;;
9834;SDS011;69850;50.942;13.748;2024-02-28T15:18:05;38.67;;;20.92;;
9834;SDS011;69850;50.942;13.748;2024-02-28T15:21:26;40.55;;;21.58;;
9834;SDS011;69850;50.942;13.748;2024-02-28T15:24:47;38.75;;;21.17;;
9834;SDS011;69850;50.942;13.748;2024-02-28T15:28:08;39.92;;;21.25;;
9834;SDS011;69850;50.942;13.748;2024-02-28T15:31:28;37.58;;;20.90;;
9834;SDS011;69850;50.942;13.748;2024-02-28T15:34:49;37.88;;;20.48;;
9834;SDS011;69850;50.942;13.748;2024-02-28T15:38:11;38.05;;;21.65;;
9834;SDS011;69850;50.942;13.748;2024-02-28T15:41:33;37.45;;;20.40;;
9834;SDS011;69850;50.942;13.748;2024-02-28T15:44:54;39.83;;;21.52;;
9834;SDS011;69850;50.942;13.748;2024-02-28T15:48:15;38.22;;;21.55;;
9834;SDS011;69850;50.942;13.748;2024-02-28T15:51:36;43.42;;;23.48;;
9834;SDS011;69850;50.942;13.748;2024-02-28T15:54:56;44.70;;;24.33;;
9834;SDS011;69850;50.942;13.748;2024-02-28T15:58:17;38.65;;;20.95;;
9834;SDS011;69850;50.942;13.748;2024-02-28T16:01:39;41.92;;;21.80;;
9834;SDS011;69850;50.942;13.748;2024-02-28T16:05:00;40.17;;;21.88;;
9834;SDS011;69850;50.942;13.748;2024-02-28T16:08:21;38.95;;;20.88;;
9834;SDS011;69850;50.942;13.748;2024-02-28T16:11:45;41.47;;;21.83;;
9834;SDS011;69850;50.942;13.748;2024-02-28T16:15:05;40.45;;;22.00;;
9834;SDS011;69850;50.942;13.748;2024-02-28T16:18:28;42.28;;;23.38;;
9834;SDS011;69850;50.942;13.748;2024-02-28T16:21:48;43.38;;;22.83;;
9834;SDS011;69850;50.942;13.748;2024-02-28T16:25:12;49.80;;;23.38;;
9834;SDS011;69850;50.942;13.748;2024-02-28T16:28:33;45.35;;;23.08;;
9834;SDS011;69850;50.942;13.748;2024-02-28T16:31:55;45.40;;;23.08;;
9834;SDS011;69850;50.942;13.748;2024-02-28T16:35:16;50.03;;;24.17;;
9834;SDS011;69850;50.942;13.748;2024-02-28T16:38:37;49.50;;;24.70;;
9834;SDS011;69850;50.942;13.748;2024-02-28T16:41:57;57.17;;;28.80;;
9834;SDS011;69850;50.942;13.748;2024-02-28T16:45:18;51.28;;;25.25;;
9834;SDS011;69850;50.942;13.748;2024-02-28T16:48:39;51.42;;;24.42;;
9834;SDS011;69850;50.942;13.748;2024-02-28T16:52:01;53.00;;;24.02;;
9834;SDS011;69850;50.942;13.748;2024-02-28T16:55:22;49.03;;;23.77;;
9834;SDS011;69850;50.942;13.748;2024-02-28T16:58:42;52.10;;;24.17;;
9834;SDS011;69850;50.942;13.748;2024-02-28T17:02:03;53.03;;;25.73;;
9834;SDS011;69850;50.942;13.748;2024-02-28T17:05:25;53.40;;;24.83;;
9834;SDS011;69850;50.942;13.748;2024-02-28T17:08:45;54.65;;;26.55;;
9834;SDS011;69850;50.942;13.748;2024-02-28T17:12:06;49.97;;;23.33;;
9834;SDS011;69850;50.942;13.748;2024-02-28T17:15:27;55.35;;;25.15;;
9834;SDS011;69850;50.942;13.748;2024-02-28T17:18:48;54.80;;;23.55;;
9834;SDS011;69850;50.942;13.748;2024-02-28T17:22:09;58.05;;;26.35;;
9834;SDS011;69850;50.942;13.748;2024-02-28T17:25:29;64.00;;;27.75;;
9834;SDS011;69850;50.942;13.748;2024-02-28T17:28:51;67.07;;;28.10;;
9834;SDS011;69850;50.942;13.748;2024-02-28T17:32:14;73.97;;;28.27;;
9834;SDS011;69850;50.942;13.748;2024-02-28T17:35:35;61.97;;;25.90;;
9834;SDS011;69850;50.942;13.748;2024-02-28T17:38:55;66.28;;;25.50;;
9834;SDS011;69850;50.942;13.748;2024-02-28T17:42:16;71.43;;;27.08;;
9834;SDS011;69850;50.942;13.748;2024-02-28T17:45:37;71.53;;;26.42;;
9834;SDS011;69850;50.942;13.748;2024-02-28T17:48:58;67.50;;;26.88;;
9834;SDS011;69850;50.942;13.748;2024-02-28T17:52:19;69.28;;;27.17;;
9834;SDS011;69850;50.942;13.748;2024-02-28T17:55:40;76.57;;;28.95;;
9834;SDS011;69850;50.942;13.748;2024-02-28T17:59:02;72.10;;;29.23;;
9834;SDS011;69850;50.942;13.748;2024-02-28T18:02:22;70.93;;;28.50;;
9834;SDS011;69850;50.942;13.748;2024-02-28T18:05:45;77.40;;;26.33;;
9834;SDS011;69850;50.942;13.748;2024-02-28T18:09:06;84.13;;;32.17;;
9834;SDS011;69850;50.942;13.748;2024-02-28T18:12:30;79.35;;;28.67;;
9834;SDS011;69850;50.942;13.748;2024-02-28T18:15:51;81.85;;;28.63;;
9834;SDS011;69850;50.942;13.748;2024-02-28T18:19:13;75.18;;;26.55;;
9834;SDS011;69850;50.942;13.748;2024-02-28T18:22:33;77.47;;;27.60;;
9834;SDS011;69850;50.942;13.748;2024-02-28T18:25:55;74.57;;;26.20;;
9834;SDS011;69850;50.942;13.748;2024-02-28T18:29:15;81.13;;;27.05;;
9834;SDS011;69850;50.942;13.748;2024-02-28T18:32:37;73.65;;;26.05;;
9834;SDS011;69850;50.942;13.748;2024-02-28T18:35:58;157.43;;;60.28;;
9834;SDS011;69850;50.942;13.748;2024-02-28T18:39:18;98.35;;;32.78;;
9834;SDS011;69850;50.942;13.748;2024-02-28T18:42:39;91.22;;;29.63;;
9834;SDS011;69850;50.942;13.748;2024-02-28T18:46:00;90.47;;;29.30;;
9834;SDS011;69850;50.942;13.748;2024-02-28T18:49:20;113.78;;;30.80;;
9834;SDS011;69850;50.942;13.748;2024-02-28T18:52:41;103.22;;;30.40;;
9834;SDS011;69850;50.942;13.748;2024-02-28T18:56:02;94.95;;;33.88;;
9834;SDS011;69850;50.942;13.748;2024-02-28T18:59:24;97.95;;;32.08;;
9834;SDS011;69850;50.942;13.748;2024-02-28T19:02:44;93.90;;;30.67;;
9834;SDS011;69850;50.942;13.748;2024-02-28T19:06:08;92.00;;;29.73;;
9834;SDS011;69850;50.942;13.748;2024-02-28T19:09:31;95.45;;;30.00;;
9834;SDS011;69850;50.942;13.748;2024-02-28T19:12:52;104.78;;;31.38;;
9834;SDS011;69850;50.942;13.748;2024-02-28T19:16:13;101.80;;;30.55;;
9834;SDS011;69850;50.942;13.748;2024-02-28T19:19:34;107.63;;;31.83;;
9834;SDS011;69850;50.942;13.748;2024-02-28T19:22:55;105.40;;;31.88;;
9834;SDS011;69850;50.942;13.748;2024-02-28T19:26:16;90.88;;;29.15;;
9834;SDS011;69850;50.942;13.748;2024-02-28T19:29:38;90.50;;;29.15;;
9834;SDS011;69850;50.942;13.748;2024-02-28T19:32:58;87.95;;;28.60;;
9834;SDS011;69850;50.942;13.748;2024-02-28T19:36:19;111.93;;;35.80;;
9834;SDS011;69850;50.942;13.748;2024-02-28T19:39:40;102.10;;;31.67;;